createdAt,value
2018-10-07T00:00:45.413Z,998.19
2018-10-07T00:01:45.442Z,998.20
2018-10-07T00:02:45.455Z,998.20
2018-10-07T00:03:45.482Z,998.23
2018-10-07T00:04:45.505Z,998.23
2018-10-07T00:05:45.548Z,998.24
2018-10-07T00:06:45.558Z,998.27
2018-10-07T00:07:45.561Z,998.31
2018-10-07T00:08:45.925Z,998.30
2018-10-07T00:09:45.627Z,998.30
2018-10-07T00:10:45.633Z,998.36
2018-10-07T00:11:45.656Z,998.32
2018-10-07T00:12:45.686Z,998.32
2018-10-07T00:13:45.694Z,998.35
2018-10-07T00:14:45.712Z,998.33
2018-10-07T00:15:45.751Z,998.33
2018-10-07T00:16:45.769Z,998.32
2018-10-07T00:17:45.778Z,998.34
2018-10-07T00:19:45.828Z,998.35
2018-10-07T00:20:45.846Z,998.37
2018-10-07T00:21:45.864Z,998.34
2018-10-07T00:22:45.903Z,998.37
2018-10-07T00:23:45.924Z,998.42
2018-10-07T00:24:45.933Z,998.40
2018-10-07T00:25:45.962Z,998.40
2018-10-07T00:26:46.017Z,998.42
2018-10-07T00:27:46.009Z,998.41
2018-10-07T00:28:46.014Z,998.48
2018-10-07T00:29:46.038Z,998.47
2018-10-07T00:30:46.072Z,998.49
2018-10-07T00:31:46.081Z,998.56
2018-10-07T00:32:46.095Z,998.54
2018-10-07T00:33:46.128Z,998.52
2018-10-07T00:34:46.138Z,998.55
2018-10-07T00:35:46.162Z,998.56
2018-10-07T00:36:46.189Z,998.55
2018-10-07T00:37:46.277Z,998.57
2018-10-07T00:38:46.231Z,998.57
2018-10-07T00:39:46.254Z,998.55
2018-10-07T00:40:46.277Z,998.59
2018-10-07T00:41:46.304Z,998.56
2018-10-07T00:42:46.313Z,998.54
2018-10-07T00:43:46.332Z,998.60
2018-10-07T00:44:46.355Z,998.60
2018-10-07T00:45:46.376Z,998.61
2018-10-07T00:46:46.399Z,998.61
2018-10-07T00:47:46.423Z,998.68
2018-10-07T00:48:46.505Z,998.69
2018-10-07T00:49:46.463Z,998.69
2018-10-07T00:50:46.500Z,998.69
2018-10-07T00:51:46.523Z,998.70
2018-10-07T00:52:46.530Z,998.71
2018-10-07T00:53:46.549Z,998.71
2018-10-07T00:54:46.579Z,998.69
2018-10-07T00:55:46.588Z,998.68
2018-10-07T00:56:46.606Z,998.71
2018-10-07T00:57:46.633Z,998.69
2018-10-07T00:58:46.660Z,998.66
2018-10-07T00:59:46.677Z,998.68
2018-10-07T01:00:46.691Z,998.69
2018-10-07T01:01:46.731Z,998.69
2018-10-07T01:02:46.739Z,998.72
2018-10-07T01:03:46.760Z,998.66
2018-10-07T01:04:46.787Z,998.67
2018-10-07T01:05:46.804Z,998.66
2018-10-07T01:06:46.816Z,998.60
2018-10-07T01:07:46.835Z,998.65
2018-10-07T01:08:46.865Z,998.63
2018-10-07T01:09:46.890Z,998.61
2018-10-07T01:10:46.899Z,998.61
2018-10-07T01:11:46.919Z,998.64
2018-10-07T01:12:46.944Z,998.63
2018-10-07T01:13:46.968Z,998.64
2018-10-07T01:14:46.999Z,998.62
2018-10-07T01:15:47.018Z,998.62
2018-10-07T01:16:47.034Z,998.67
2018-10-07T01:17:47.053Z,998.71
2018-10-07T01:18:47.084Z,998.67
2018-10-07T01:19:47.093Z,998.72
2018-10-07T01:20:47.120Z,998.66
2018-10-07T01:21:47.139Z,998.66
2018-10-07T01:22:47.152Z,998.60
2018-10-07T01:23:47.187Z,998.63
2018-10-07T01:24:47.231Z,998.64
2018-10-07T01:25:47.217Z,998.63
2018-10-07T01:26:47.255Z,998.65
2018-10-07T01:27:47.274Z,998.67
2018-10-07T01:28:47.289Z,998.70
2018-10-07T01:29:47.312Z,998.71
2018-10-07T01:30:47.338Z,998.73
2018-10-07T01:31:47.347Z,998.74
2018-10-07T01:32:47.366Z,998.76
2018-10-07T01:33:47.394Z,998.73
2018-10-07T01:34:47.414Z,998.72
2018-10-07T01:35:47.431Z,998.74
2018-10-07T01:36:47.455Z,998.73
2018-10-07T01:37:47.470Z,998.76
2018-10-07T01:38:47.490Z,998.75
2018-10-07T01:39:47.521Z,998.75
2018-10-07T01:40:47.576Z,998.74
2018-10-07T01:41:47.560Z,998.73
2018-10-07T01:42:47.579Z,998.74
2018-10-07T01:43:47.608Z,998.72
2018-10-07T01:44:47.620Z,998.69
2018-10-07T01:45:47.641Z,998.68
2018-10-07T01:46:47.658Z,998.66
2018-10-07T01:47:47.679Z,998.69
2018-10-07T01:48:47.711Z,998.67
2018-10-07T01:49:47.722Z,998.65
2018-10-07T01:50:47.744Z,998.64
2018-10-07T01:51:47.811Z,998.69
2018-10-07T01:52:47.790Z,998.70
2018-10-07T01:53:47.812Z,998.72
2018-10-07T01:54:47.831Z,998.72
2018-10-07T01:55:47.862Z,998.72
2018-10-07T01:56:47.879Z,998.71
2018-10-07T01:57:47.907Z,998.72
2018-10-07T01:58:47.911Z,998.72
2018-10-07T01:59:47.950Z,998.71
2018-10-07T02:00:47.956Z,998.74
2018-10-07T02:01:47.974Z,998.75
2018-10-07T02:02:47.996Z,998.76
2018-10-07T02:03:48.028Z,998.77
2018-10-07T02:04:48.080Z,998.81
2018-10-07T02:05:48.081Z,998.82
2018-10-07T02:06:48.081Z,998.88
2018-10-07T02:07:48.103Z,998.89
2018-10-07T02:08:48.122Z,998.88
2018-10-07T02:09:48.147Z,998.93
2018-10-07T02:10:48.168Z,998.91
2018-10-07T02:11:48.193Z,998.91
2018-10-07T02:12:48.212Z,998.88
2018-10-07T02:13:48.233Z,998.89
2018-10-07T02:14:48.247Z,998.88
2018-10-07T02:15:48.267Z,998.88
2018-10-07T02:16:48.287Z,998.90
2018-10-07T02:17:48.310Z,998.89
2018-10-07T02:18:48.333Z,998.88
2018-10-07T02:19:48.344Z,998.89
2018-10-07T02:20:48.367Z,998.91
2018-10-07T02:21:48.415Z,998.98
2018-10-07T02:22:48.407Z,998.96
2018-10-07T02:23:48.432Z,999.00
2018-10-07T02:24:48.460Z,999.02
2018-10-07T02:25:48.486Z,998.97
2018-10-07T02:26:48.495Z,998.97
2018-10-07T02:27:48.511Z,998.98
2018-10-07T02:28:48.568Z,999.00
2018-10-07T02:29:48.557Z,999.01
2018-10-07T02:30:48.575Z,998.99
2018-10-07T02:31:48.611Z,998.98
2018-10-07T02:32:48.615Z,999.01
2018-10-07T02:33:48.643Z,999.06
2018-10-07T02:34:48.661Z,999.05
2018-10-07T02:35:48.679Z,999.03
2018-10-07T02:36:48.708Z,999.07
2018-10-07T02:37:48.719Z,999.10
2018-10-07T02:38:48.741Z,999.05
2018-10-07T02:39:48.795Z,999.11
2018-10-07T02:40:48.782Z,999.09
2018-10-07T02:41:48.805Z,999.06
2018-10-07T02:42:48.826Z,999.04
2018-10-07T02:43:48.855Z,999.06
2018-10-07T02:44:48.866Z,999.06
2018-10-07T02:45:48.881Z,999.08
2018-10-07T02:46:48.901Z,999.04
2018-10-07T02:47:48.928Z,999.07
2018-10-07T02:48:48.950Z,999.05
2018-10-07T02:49:48.980Z,999.09
2018-10-07T02:50:48.992Z,999.05
2018-10-07T02:51:49.016Z,999.12
2018-10-07T02:52:49.023Z,999.13
2018-10-07T02:53:49.050Z,999.12
2018-10-07T02:54:49.073Z,999.15
2018-10-07T02:55:49.095Z,999.18
2018-10-07T02:56:49.163Z,999.22
2018-10-07T02:57:49.194Z,999.24
2018-10-07T02:58:49.157Z,999.24
2018-10-07T02:59:49.187Z,999.25
2018-10-07T03:00:49.199Z,999.26
2018-10-07T03:01:49.216Z,999.27
2018-10-07T03:02:49.248Z,999.34
2018-10-07T03:03:49.260Z,999.35
2018-10-07T03:04:49.349Z,999.30
2018-10-07T03:05:49.313Z,999.33
2018-10-07T03:06:49.334Z,999.33
2018-10-07T03:07:49.427Z,999.31
2018-10-07T03:08:49.365Z,999.32
2018-10-07T03:09:49.389Z,999.33
2018-10-07T03:10:49.408Z,999.33
2018-10-07T03:11:49.427Z,999.35
2018-10-07T03:12:49.448Z,999.30
2018-10-07T03:13:49.480Z,999.28
2018-10-07T03:14:49.493Z,999.27
2018-10-07T03:15:49.517Z,999.25
2018-10-07T03:16:49.535Z,999.28
2018-10-07T03:17:49.549Z,999.30
2018-10-07T03:18:49.562Z,999.33
2018-10-07T03:19:49.603Z,999.33
2018-10-07T03:20:49.614Z,999.34
2018-10-07T03:21:49.629Z,999.33
2018-10-07T03:22:49.653Z,999.31
2018-10-07T03:23:49.671Z,999.33
2018-10-07T03:24:49.709Z,999.30
2018-10-07T03:25:49.712Z,999.34
2018-10-07T03:26:49.734Z,999.32
2018-10-07T03:27:49.764Z,999.35
2018-10-07T03:28:49.775Z,999.35
2018-10-07T03:29:49.800Z,999.35
2018-10-07T03:30:49.827Z,999.35
2018-10-07T03:31:49.980Z,999.36
2018-10-07T03:32:49.859Z,999.38
2018-10-07T03:33:49.885Z,999.39
2018-10-07T03:34:49.901Z,999.36
2018-10-07T03:35:49.945Z,999.36
2018-10-07T03:36:49.941Z,999.38
2018-10-07T03:37:49.960Z,999.41
2018-10-07T03:38:49.988Z,999.40
2018-10-07T03:39:50.008Z,999.40
2018-10-07T03:40:50.028Z,999.39
2018-10-07T03:41:50.047Z,999.41
2018-10-07T03:42:50.067Z,999.40
2018-10-07T03:43:50.089Z,999.41
2018-10-07T03:44:50.102Z,999.42
2018-10-07T03:45:50.132Z,999.43
2018-10-07T03:46:50.162Z,999.43
2018-10-07T03:47:50.168Z,999.42
2018-10-07T03:48:50.220Z,999.42
2018-10-07T03:49:50.209Z,999.45
2018-10-07T03:50:50.234Z,999.46
2018-10-07T03:51:50.255Z,999.39
2018-10-07T03:52:50.276Z,999.43
2018-10-07T03:53:50.332Z,999.44
2018-10-07T03:54:50.315Z,999.39
2018-10-07T03:55:50.327Z,999.42
2018-10-07T03:56:50.356Z,999.44
2018-10-07T03:57:50.369Z,999.42
2018-10-07T03:58:50.394Z,999.44
2018-10-07T03:59:50.424Z,999.43
2018-10-07T04:00:50.434Z,999.42
2018-10-07T04:01:50.449Z,999.46
2018-10-07T04:02:50.475Z,999.49
2018-10-07T04:03:50.497Z,999.47
2018-10-07T04:04:50.513Z,999.52
2018-10-07T04:05:50.533Z,999.55
2018-10-07T04:06:50.558Z,999.52
2018-10-07T04:07:50.575Z,999.58
2018-10-07T04:08:50.593Z,999.54
2018-10-07T04:09:50.617Z,999.63
2018-10-07T04:10:50.700Z,999.58
2018-10-07T04:11:50.659Z,999.59
2018-10-07T04:12:50.680Z,999.63
2018-10-07T04:13:50.696Z,999.63
2018-10-07T04:14:50.715Z,999.62
2018-10-07T04:15:50.743Z,999.66
2018-10-07T04:16:50.759Z,999.64
2018-10-07T04:17:50.787Z,999.66
2018-10-07T04:18:50.802Z,999.67
2018-10-07T04:19:50.823Z,999.71
2018-10-07T04:20:50.845Z,999.70
2018-10-07T04:21:50.858Z,999.74
2018-10-07T04:22:50.889Z,999.75
2018-10-07T04:23:50.901Z,999.75
2018-10-07T04:24:50.932Z,999.72
2018-10-07T04:25:50.948Z,999.74
2018-10-07T04:26:50.983Z,999.71
2018-10-07T04:27:50.993Z,999.75
2018-10-07T04:28:51.007Z,999.78
2018-10-07T04:29:51.033Z,999.80
2018-10-07T04:30:51.049Z,999.79
2018-10-07T04:31:51.065Z,999.84
2018-10-07T04:32:51.090Z,999.84
2018-10-07T04:33:51.111Z,999.88
2018-10-07T04:34:51.221Z,999.87
2018-10-07T04:35:51.156Z,999.86
2018-10-07T04:36:51.168Z,999.87
2018-10-07T04:37:51.185Z,999.88
2018-10-07T04:38:51.210Z,999.90
2018-10-07T04:39:51.268Z,999.89
2018-10-07T04:40:51.251Z,999.88
2018-10-07T04:41:51.266Z,999.88
2018-10-07T04:42:51.296Z,999.90
2018-10-07T04:43:51.318Z,999.93
2018-10-07T04:44:51.332Z,999.95
2018-10-07T04:45:51.352Z,999.94
2018-10-07T04:46:51.376Z,999.95
2018-10-07T04:47:51.408Z,999.98
2018-10-07T04:48:51.416Z,1000.00
2018-10-07T04:49:51.446Z,999.97
2018-10-07T04:50:51.464Z,999.99
2018-10-07T04:51:51.472Z,1000.00
2018-10-07T04:52:51.497Z,1000.01
2018-10-07T04:53:51.513Z,1000.05
2018-10-07T04:54:51.539Z,1000.07
2018-10-07T04:55:51.555Z,1000.03
2018-10-07T04:56:51.581Z,1000.04
2018-10-07T04:57:51.607Z,1000.08
2018-10-07T04:58:51.619Z,1000.09
2018-10-07T04:59:51.641Z,1000.06
2018-10-07T05:00:51.655Z,1000.14
2018-10-07T05:01:51.682Z,1000.12
2018-10-07T05:02:51.715Z,1000.13
2018-10-07T05:03:51.720Z,1000.10
2018-10-07T05:04:51.740Z,1000.11
2018-10-07T05:05:51.762Z,1000.14
2018-10-07T05:06:51.791Z,1000.14
2018-10-07T05:07:51.801Z,1000.18
2018-10-07T05:08:51.826Z,1000.15
2018-10-07T05:09:51.841Z,1000.15
2018-10-07T05:10:51.859Z,1000.19
2018-10-07T05:11:51.887Z,1000.22
2018-10-07T05:12:51.918Z,1000.19
2018-10-07T05:13:51.970Z,1000.25
2018-10-07T05:14:51.941Z,1000.21
2018-10-07T05:15:51.958Z,1000.28
2018-10-07T05:16:51.985Z,1000.25
2018-10-07T05:17:52.007Z,1000.30
2018-10-07T05:18:52.026Z,1000.30
2018-10-07T05:19:52.038Z,1000.31
2018-10-07T05:20:52.097Z,1000.35
2018-10-07T05:21:52.080Z,1000.34
2018-10-07T05:22:52.099Z,1000.38
2018-10-07T05:23:52.136Z,1000.40
2018-10-07T05:24:52.141Z,1000.43
2018-10-07T05:25:52.165Z,1000.46
2018-10-07T05:26:52.199Z,1000.51
2018-10-07T05:27:52.201Z,1000.55
2018-10-07T05:28:52.234Z,1000.54
2018-10-07T05:29:52.247Z,1000.51
2018-10-07T05:30:52.281Z,1000.54
2018-10-07T05:31:52.283Z,1000.56
2018-10-07T05:32:52.311Z,1000.56
2018-10-07T05:33:52.335Z,1000.55
2018-10-07T05:34:52.339Z,1000.51
2018-10-07T05:35:52.429Z,1000.57
2018-10-07T05:36:52.383Z,1000.55
2018-10-07T05:37:52.401Z,1000.57
2018-10-07T05:38:52.431Z,1000.60
2018-10-07T05:39:52.456Z,1000.59
2018-10-07T05:40:52.494Z,1000.62
2018-10-07T05:41:52.486Z,1000.65
2018-10-07T05:42:52.505Z,1000.64
2018-10-07T05:43:52.522Z,1000.68
2018-10-07T05:44:52.594Z,1000.72
2018-10-07T05:45:52.571Z,1000.68
2018-10-07T05:47:52.609Z,1000.70
2018-10-07T05:48:52.629Z,1000.71
2018-10-07T05:49:52.646Z,1000.71
2018-10-07T05:50:52.664Z,1000.69
2018-10-07T05:51:52.688Z,1000.72
2018-10-07T05:52:52.708Z,1000.73
2018-10-07T05:53:52.757Z,1000.74
2018-10-07T05:54:52.781Z,1000.72
2018-10-07T05:55:52.767Z,1000.71
2018-10-07T05:56:52.792Z,1000.75
2018-10-07T05:57:52.812Z,1000.76
2018-10-07T05:58:52.836Z,1000.78
2018-10-07T05:59:52.853Z,1000.82
2018-10-07T06:00:52.881Z,1000.83
2018-10-07T06:01:53.013Z,1000.84
2018-10-07T06:02:52.913Z,1000.90
2018-10-07T06:03:52.933Z,1000.89
2018-10-07T06:04:52.951Z,1000.90
2018-10-07T06:05:53.072Z,1000.91
2018-10-07T06:06:52.996Z,1000.94
2018-10-07T06:07:53.017Z,1000.94
2018-10-07T06:08:53.049Z,1000.99
2018-10-07T06:09:53.057Z,1001.01
2018-10-07T06:10:53.081Z,1001.03
2018-10-07T06:11:53.096Z,1001.02
2018-10-07T06:12:53.112Z,1001.05
2018-10-07T06:13:53.143Z,1001.00
2018-10-07T06:14:53.240Z,1001.04
2018-10-07T06:15:53.196Z,1001.05
2018-10-07T06:16:53.252Z,1001.07
2018-10-07T06:17:53.221Z,1001.10
2018-10-07T06:18:53.349Z,1001.14
2018-10-07T06:19:53.265Z,1001.18
2018-10-07T06:20:53.281Z,1001.16
2018-10-07T06:21:53.300Z,1001.15
2018-10-07T06:22:53.317Z,1001.15
2018-10-07T06:23:53.333Z,1001.14
2018-10-07T06:24:53.350Z,1001.17
2018-10-07T06:25:53.384Z,1001.15
2018-10-07T06:26:53.400Z,1001.15
2018-10-07T06:27:53.418Z,1001.16
2018-10-07T06:28:53.449Z,1001.16
2018-10-07T06:29:53.577Z,1001.18
2018-10-07T06:30:53.484Z,1001.17
2018-10-07T06:31:53.498Z,1001.22
2018-10-07T06:32:53.522Z,1001.17
2018-10-07T06:33:53.547Z,1001.20
2018-10-07T06:34:53.557Z,1001.16
2018-10-07T06:35:53.584Z,1001.19
2018-10-07T06:36:53.597Z,1001.17
2018-10-07T06:37:53.617Z,1001.18
2018-10-07T06:38:53.634Z,1001.21
2018-10-07T06:39:53.699Z,1001.20
2018-10-07T06:40:53.677Z,1001.24
2018-10-07T06:41:53.720Z,1001.29
2018-10-07T06:42:53.752Z,1001.31
2018-10-07T06:43:53.745Z,1001.32
2018-10-07T06:44:53.764Z,1001.34
2018-10-07T06:45:53.837Z,1001.39
2018-10-07T06:46:53.824Z,1001.37
2018-10-07T06:47:53.824Z,1001.38
2018-10-07T06:48:53.840Z,1001.39
2018-10-07T06:49:53.858Z,1001.46
2018-10-07T06:50:53.885Z,1001.50
2018-10-07T06:51:53.901Z,1001.49
2018-10-07T06:52:53.938Z,1001.53
2018-10-07T06:53:53.942Z,1001.53
2018-10-07T06:54:53.966Z,1001.48
2018-10-07T06:56:54.002Z,1001.60
2018-10-07T06:57:54.034Z,1001.62
2018-10-07T06:58:54.042Z,1001.66
2018-10-07T06:59:54.065Z,1001.67
2018-10-07T07:00:54.083Z,1001.70
2018-10-07T07:01:54.129Z,1001.72
2018-10-07T07:02:54.124Z,1001.76
2018-10-07T07:04:54.166Z,1001.81
2018-10-07T07:05:54.183Z,1001.81
2018-10-07T07:06:54.202Z,1001.82
2018-10-07T07:07:54.229Z,1001.88
2018-10-07T07:08:54.285Z,1001.87
2018-10-07T07:09:54.265Z,1001.89
2018-10-07T07:10:54.287Z,1001.89
2018-10-07T07:11:54.308Z,1001.90
2018-10-07T07:12:54.354Z,1001.91
2018-10-07T07:13:54.353Z,1001.88
2018-10-07T07:14:54.371Z,1001.88
2018-10-07T07:15:54.384Z,1001.89
2018-10-07T07:16:54.408Z,1001.89
2018-10-07T07:17:54.430Z,1001.90
2018-10-07T07:18:54.448Z,1001.92
2018-10-07T07:19:54.589Z,1001.97
2018-10-07T07:20:54.502Z,1001.90
2018-10-07T07:21:54.519Z,1001.92
2018-10-07T07:22:54.541Z,1001.94
2018-10-07T07:23:54.548Z,1001.91
2018-10-07T07:24:54.576Z,1001.93
2018-10-07T07:25:54.591Z,1001.94
2018-10-07T07:26:54.612Z,1001.97
2018-10-07T07:27:54.628Z,1001.94
2018-10-07T07:28:54.651Z,1001.97
2018-10-07T07:29:54.671Z,1002.05
2018-10-07T07:30:54.692Z,1001.97
2018-10-07T07:31:54.714Z,1002.03
2018-10-07T07:32:54.725Z,1002.08
2018-10-07T07:33:54.748Z,1002.07
2018-10-07T07:34:54.769Z,1002.07
2018-10-07T07:35:54.797Z,1002.10
2018-10-07T07:36:54.839Z,1002.14
2018-10-07T07:37:54.847Z,1002.16
2018-10-07T07:38:54.851Z,1002.19
2018-10-07T07:39:54.872Z,1002.21
2018-10-07T07:40:54.898Z,1002.24
2018-10-07T07:41:54.948Z,1002.23
2018-10-07T07:42:54.939Z,1002.21
2018-10-07T07:43:54.956Z,1002.20
2018-10-07T07:44:54.983Z,1002.23
2018-10-07T07:45:55.014Z,1002.22
2018-10-07T07:46:55.028Z,1002.20
2018-10-07T07:47:55.039Z,1002.19
2018-10-07T07:48:55.127Z,1002.20
2018-10-07T07:49:55.074Z,1002.21
2018-10-07T07:50:55.104Z,1002.16
2018-10-07T07:51:55.122Z,1002.18
2018-10-07T07:52:55.141Z,1002.17
2018-10-07T07:53:55.159Z,1002.20
2018-10-07T07:54:55.177Z,1002.19
2018-10-07T07:55:55.199Z,1002.23
2018-10-07T07:56:55.219Z,1002.22
2018-10-07T07:57:55.244Z,1002.27
2018-10-07T07:58:55.263Z,1002.28
2018-10-07T07:59:55.284Z,1002.31
2018-10-07T08:00:55.311Z,1002.33
2018-10-07T08:01:55.330Z,1002.34
2018-10-07T08:02:55.343Z,1002.37
2018-10-07T08:03:55.371Z,1002.33
2018-10-07T08:04:55.379Z,1002.41
2018-10-07T08:05:55.404Z,1002.37
2018-10-07T08:06:55.418Z,1002.39
2018-10-07T08:07:55.447Z,1002.37
2018-10-07T08:08:55.517Z,1002.38
2018-10-07T08:09:55.489Z,1002.40
2018-10-07T08:10:55.512Z,1002.44
2018-10-07T08:11:55.600Z,1002.45
2018-10-07T08:12:55.556Z,1002.48
2018-10-07T08:13:55.617Z,1002.48
2018-10-07T08:14:55.587Z,1002.48
2018-10-07T08:15:55.604Z,1002.50
2018-10-07T08:16:55.623Z,1002.53
2018-10-07T08:17:55.747Z,1002.56
2018-10-07T08:18:55.672Z,1002.62
2018-10-07T08:19:55.692Z,1002.60
2018-10-07T08:20:55.713Z,1002.68
2018-10-07T08:21:56.482Z,1002.70
2018-10-07T08:22:55.802Z,1002.74
2018-10-07T08:23:55.820Z,1002.74
2018-10-07T08:24:55.789Z,1002.79
2018-10-07T08:25:55.814Z,1002.77
2018-10-07T08:26:55.840Z,1002.80
2018-10-07T08:27:55.854Z,1002.84
2018-10-07T08:28:55.876Z,1002.88
2018-10-07T08:29:55.903Z,1002.92
2018-10-07T08:30:55.924Z,1002.96
2018-10-07T08:31:55.937Z,1002.98
2018-10-07T08:32:55.959Z,1002.95
2018-10-07T08:33:55.972Z,1003.00
2018-10-07T08:34:56.010Z,1002.99
2018-10-07T08:35:56.013Z,1003.02
2018-10-07T08:36:56.050Z,1003.01
2018-10-07T08:37:56.055Z,1003.01
2018-10-07T08:38:56.085Z,1002.99
2018-10-07T08:39:56.100Z,1003.07
2018-10-07T08:40:56.126Z,1003.02
2018-10-07T08:41:56.157Z,1003.10
2018-10-07T08:42:56.175Z,1003.13
2018-10-07T08:43:56.199Z,1003.15
2018-10-07T08:44:56.203Z,1003.16
2018-10-07T08:45:56.250Z,1003.21
2018-10-07T08:46:56.246Z,1003.23
2018-10-07T08:47:56.264Z,1003.27
2018-10-07T08:48:56.403Z,1003.29
2018-10-07T08:49:56.378Z,1003.32
2018-10-07T08:50:56.333Z,1003.32
2018-10-07T08:51:56.349Z,1003.33
2018-10-07T08:52:56.391Z,1003.31
2018-10-07T08:53:56.387Z,1003.31
2018-10-07T08:54:56.410Z,1003.31
2018-10-07T08:55:56.484Z,1003.29
2018-10-07T08:56:56.460Z,1003.27
2018-10-07T08:57:56.483Z,1003.28
2018-10-07T08:58:56.512Z,1003.30
2018-10-07T08:59:56.515Z,1003.29
2018-10-07T09:00:56.542Z,1003.29
2018-10-07T09:01:56.565Z,1003.31
2018-10-07T09:02:56.597Z,1003.35
2018-10-07T09:03:56.614Z,1003.32
2018-10-07T09:04:56.628Z,1003.34
2018-10-07T09:05:56.645Z,1003.34
2018-10-07T09:06:56.667Z,1003.36
2018-10-07T09:07:56.683Z,1003.30
2018-10-07T09:08:56.760Z,1003.31
2018-10-07T09:09:56.730Z,1003.29
2018-10-07T09:10:56.756Z,1003.26
2018-10-07T09:11:56.769Z,1003.21
2018-10-07T09:12:56.795Z,1003.20
2018-10-07T09:13:56.831Z,1003.23
2018-10-07T09:14:56.838Z,1003.23
2018-10-07T09:15:56.855Z,1003.17
2018-10-07T09:16:56.915Z,1003.22
2018-10-07T09:17:56.901Z,1003.20
2018-10-07T09:18:56.923Z,1003.16
2018-10-07T09:19:56.943Z,1003.19
2018-10-07T09:20:56.989Z,1003.20
2018-10-07T09:21:56.981Z,1003.17
2018-10-07T09:22:57.016Z,1003.17
2018-10-07T09:23:57.035Z,1003.21
2018-10-07T09:24:57.051Z,1003.20
2018-10-07T09:25:57.069Z,1003.17
2018-10-07T09:26:57.206Z,1003.18
2018-10-07T09:27:57.226Z,1003.20
2018-10-07T09:28:57.134Z,1003.19
2018-10-07T09:29:57.157Z,1003.22
2018-10-07T09:30:57.177Z,1003.22
2018-10-07T09:31:57.202Z,1003.20
2018-10-07T09:32:57.302Z,1003.20
2018-10-07T09:33:57.244Z,1003.22
2018-10-07T09:34:57.272Z,1003.22
2018-10-07T09:35:57.287Z,1003.26
2018-10-07T09:36:57.328Z,1003.27
2018-10-07T09:37:57.365Z,1003.29
2018-10-07T09:39:57.436Z,1003.31
2018-10-07T09:40:57.486Z,1003.34
2018-10-07T09:41:57.430Z,1003.33
2018-10-07T09:42:57.437Z,1003.40
2018-10-07T09:43:57.466Z,1003.36
2018-10-07T09:44:57.480Z,1003.35
2018-10-07T09:45:57.512Z,1003.34
2018-10-07T09:46:57.608Z,1003.36
2018-10-07T09:47:57.568Z,1003.32
2018-10-07T09:48:57.560Z,1003.37
2018-10-07T09:49:57.612Z,1003.35
2018-10-07T09:50:57.612Z,1003.36
2018-10-07T09:51:57.697Z,1003.35
2018-10-07T09:53:57.685Z,1003.33
2018-10-07T09:54:57.700Z,1003.37
2018-10-07T09:55:57.716Z,1003.33
2018-10-07T09:56:57.755Z,1003.33
2018-10-07T09:57:57.824Z,1003.35
2018-10-07T09:58:57.781Z,1003.34
2018-10-07T09:59:57.800Z,1003.34
2018-10-07T10:00:57.829Z,1003.39
2018-10-07T10:01:57.850Z,1003.39
2018-10-07T10:02:57.866Z,1003.38
2018-10-07T10:03:57.966Z,1003.37
2018-10-07T10:04:57.923Z,1003.43
2018-10-07T10:05:57.944Z,1003.41
2018-10-07T10:06:58.001Z,1003.40
2018-10-07T10:07:57.972Z,1003.42
2018-10-07T10:08:57.997Z,1003.40
2018-10-07T10:09:58.030Z,1003.36
2018-10-07T10:10:58.081Z,1003.36
2018-10-07T10:11:58.095Z,1003.32
2018-10-07T10:12:58.083Z,1003.31
2018-10-07T10:13:58.170Z,1003.32
2018-10-07T10:14:58.137Z,1003.34
2018-10-07T10:15:58.165Z,1003.33
2018-10-07T10:16:58.185Z,1003.32
2018-10-07T10:17:58.208Z,1003.33
2018-10-07T10:18:58.231Z,1003.34
2018-10-07T10:19:58.244Z,1003.30
2018-10-07T10:20:58.263Z,1003.33
2018-10-07T10:21:58.293Z,1003.35
2018-10-07T10:22:58.320Z,1003.35
2018-10-07T10:23:58.353Z,1003.39
2018-10-07T10:24:58.344Z,1003.37
2018-10-07T10:25:58.367Z,1003.40
2018-10-07T10:26:58.398Z,1003.40
2018-10-07T10:27:58.413Z,1003.43
2018-10-07T10:28:58.431Z,1003.42
2018-10-07T10:29:58.459Z,1003.42
2018-10-07T10:30:58.486Z,1003.39
2018-10-07T10:31:58.504Z,1003.39
2018-10-07T10:32:58.524Z,1003.41
2018-10-07T10:33:58.573Z,1003.35
2018-10-07T10:34:58.571Z,1003.39
2018-10-07T10:35:58.594Z,1003.38
2018-10-07T10:36:58.714Z,1003.36
2018-10-07T10:37:58.640Z,1003.41
2018-10-07T10:38:58.658Z,1003.42
2018-10-07T10:39:58.698Z,1003.45
2018-10-07T10:40:58.701Z,1003.45
2018-10-07T10:41:58.757Z,1003.47
2018-10-07T10:42:58.748Z,1003.45
2018-10-07T10:43:58.787Z,1003.43
2018-10-07T10:44:58.786Z,1003.44
2018-10-07T10:45:58.813Z,1003.46
2018-10-07T10:46:58.830Z,1003.44
2018-10-07T10:47:58.870Z,1003.44
2018-10-07T10:48:58.879Z,1003.45
2018-10-07T10:49:58.898Z,1003.45
2018-10-07T10:50:58.926Z,1003.47
2018-10-07T10:51:58.948Z,1003.45
2018-10-07T10:52:58.974Z,1003.48
2018-10-07T10:53:58.988Z,1003.47
2018-10-07T10:54:59.019Z,1003.51
2018-10-07T10:55:59.036Z,1003.55
2018-10-07T10:56:59.062Z,1003.50
2018-10-07T10:57:59.088Z,1003.49
2018-10-07T10:58:59.109Z,1003.53
2018-10-07T10:59:59.132Z,1003.51
2018-10-07T11:00:59.219Z,1003.59
2018-10-07T11:01:59.177Z,1003.57
2018-10-07T11:02:59.222Z,1003.59
2018-10-07T11:03:59.228Z,1003.63
2018-10-07T11:04:59.270Z,1003.69
2018-10-07T11:05:59.291Z,1003.75
2018-10-07T11:06:59.313Z,1003.77
2018-10-07T11:07:59.322Z,1003.75
2018-10-07T11:08:59.370Z,1003.80
2018-10-07T11:09:59.388Z,1003.80
2018-10-07T11:10:59.406Z,1003.76
2018-10-07T11:11:59.429Z,1003.77
2018-10-07T11:12:59.464Z,1003.71
2018-10-07T11:13:59.575Z,1003.69
2018-10-07T11:14:59.514Z,1003.66
2018-10-07T11:15:59.546Z,1003.69
2018-10-07T11:16:59.570Z,1003.70
2018-10-07T11:17:59.591Z,1003.73
2018-10-07T11:18:59.631Z,1003.69
2018-10-07T11:19:59.645Z,1003.72
2018-10-07T11:20:59.677Z,1003.63
2018-10-07T11:21:59.708Z,1003.70
2018-10-07T11:22:59.728Z,1003.80
2018-10-07T11:23:59.760Z,1003.86
2018-10-07T11:24:59.780Z,1003.85
2018-10-07T11:25:59.851Z,1003.80
2018-10-07T11:26:59.847Z,1003.81
2018-10-07T11:27:59.863Z,1003.81
2018-10-07T11:28:59.892Z,1003.72
2018-10-07T11:30:01.115Z,1003.67
2018-10-07T11:30:59.959Z,1003.69
2018-10-07T11:31:59.989Z,1003.67
2018-10-07T11:33:00.003Z,1003.67
2018-10-07T11:34:00.048Z,1003.67
2018-10-07T11:35:00.062Z,1003.64
2018-10-07T11:36:00.096Z,1003.63
2018-10-07T11:37:00.115Z,1003.66
2018-10-07T11:38:00.136Z,1003.72
2018-10-07T11:39:00.167Z,1003.68
2018-10-07T11:40:00.190Z,1003.67
2018-10-07T11:41:00.250Z,1003.65
2018-10-07T11:43:00.269Z,1003.69
2018-10-07T11:44:00.303Z,1003.67
2018-10-07T11:45:00.322Z,1003.70
2018-10-07T11:46:00.351Z,1003.61
2018-10-07T11:47:00.368Z,1003.64
2018-10-07T11:48:00.497Z,1003.69
2018-10-07T11:49:00.425Z,1003.71
2018-10-07T11:50:00.467Z,1003.71
2018-10-07T11:51:00.490Z,1003.73
2018-10-07T11:52:00.518Z,1003.69
2018-10-07T11:53:00.524Z,1003.73
2018-10-07T11:54:00.561Z,1003.73
2018-10-07T11:55:00.595Z,1003.73
2018-10-07T11:56:00.602Z,1003.77
2018-10-07T11:57:00.634Z,1003.78
2018-10-07T11:58:00.664Z,1003.73
2018-10-07T11:59:00.733Z,1003.75
2018-10-07T12:00:00.740Z,1003.77
2018-10-07T12:01:00.752Z,1003.79
2018-10-07T12:02:00.795Z,1003.81
2018-10-07T12:03:00.802Z,1003.78
2018-10-07T12:04:00.812Z,1003.73
2018-10-07T12:05:00.829Z,1003.73
2018-10-07T12:06:00.870Z,1003.74
2018-10-07T12:07:00.889Z,1003.75
2018-10-07T12:08:00.920Z,1003.75
2018-10-07T12:09:00.935Z,1003.73
2018-10-07T12:10:01.041Z,1003.71
2018-10-07T12:11:01.003Z,1003.72
2018-10-07T12:12:01.015Z,1003.67
2018-10-07T12:13:01.040Z,1003.68
2018-10-07T12:14:01.063Z,1003.70
2018-10-07T12:15:01.080Z,1003.66
2018-10-07T12:16:01.108Z,1003.65
2018-10-07T12:17:01.129Z,1003.68
2018-10-07T12:18:01.161Z,1003.68
2018-10-07T12:19:01.199Z,1003.67
2018-10-07T12:20:01.216Z,1003.68
2018-10-07T12:21:01.236Z,1003.65
2018-10-07T12:22:01.265Z,1003.68